DLH2GY LZIB-LFBD
Flight info
| Callsign | DLH2GY |
|---|---|
| Flight time | 1h 59m |
| Altitude | 36000 |
| Route | TOVKA DCT SIMBA DCT KPT L856 RAVED/N0440F370 DCT BADEP Z669 MILPA N869 NINTU DCT LERGA DCT VELIN |
| Aircraft | A321/M-SDE3FGHIRWY/LB1 |
Departure
| Time | 2026-05-01 08:21 |
|---|---|
| Airport | M. R. Štefánik Airport (LZIB) |
Arrival
| Time | 2026-05-01 10:20 |
|---|---|
| Airport | Bordeaux–Mérignac Airport (LFBD) |
| Time | Latitude | Longitude | Altitude | Speed | Heading |
|---|---|---|---|---|---|
| 2026-05-01 07:55 | 48.16940 | 17.20108 | 436 ft | 0 kts | 314° |
| 2026-05-01 08:11 | 48.16918 | 17.20150 | 423 ft | 4 kts | 293° |
| 2026-05-01 08:12 | 48.16917 | 17.20202 | 423 ft | 0 kts | 223° |
| 2026-05-01 08:15 | 48.16917 | 17.20201 | 423 ft | 0 kts | 223° |
| 2026-05-01 08:15 | 48.16908 | 17.20188 | 424 ft | 4 kts | 223° |
| 2026-05-01 08:16 | 48.16884 | 17.20155 | 426 ft | 5 kts | 224° |
| 2026-05-01 08:16 | 48.16859 | 17.20143 | 433 ft | 4 kts | 177° |
| 2026-05-01 08:16 | 48.16840 | 17.20160 | 428 ft | 3 kts | 136° |
| 2026-05-01 08:16 | 48.16819 | 17.20191 | 434 ft | 5 kts | 135° |
| 2026-05-01 08:17 | 48.16787 | 17.20238 | 431 ft | 8 kts | 135° |
| 2026-05-01 08:17 | 48.16745 | 17.20302 | 424 ft | 9 kts | 134° |
| 2026-05-01 08:17 | 48.16694 | 17.20345 | 438 ft | 8 kts | 182° |
| 2026-05-01 08:17 | 48.16649 | 17.20299 | 434 ft | 8 kts | 223° |
| 2026-05-01 08:18 | 48.16609 | 17.20245 | 433 ft | 8 kts | 220° |
| 2026-05-01 08:18 | 48.16527 | 17.20143 | 441 ft | 8 kts | 220° |
| 2026-05-01 08:19 | 48.16418 | 17.20003 | 449 ft | 11 kts | 220° |
| 2026-05-01 08:19 | 48.16364 | 17.19931 | 451 ft | 10 kts | 221° |
| 2026-05-01 08:19 | 48.16310 | 17.19859 | 453 ft | 10 kts | 222° |
| 2026-05-01 08:19 | 48.16254 | 17.19794 | 454 ft | 10 kts | 204° |
| 2026-05-01 08:20 | 48.16188 | 17.19799 | 455 ft | 10 kts | 153° |
| 2026-05-01 08:20 | 48.16137 | 17.19871 | 455 ft | 11 kts | 132° |
| 2026-05-01 08:20 | 48.16100 | 17.19951 | 455 ft | 8 kts | 90° |
| 2026-05-01 08:20 | 48.16145 | 17.20027 | 454 ft | 13 kts | 44° |
| 2026-05-01 08:21 | 48.16349 | 17.20322 | 447 ft | 79 kts | 44° |
| 2026-05-01 08:21 | 48.16925 | 17.21154 | 426 ft | 147 kts | 44° |
| 2026-05-01 08:21 | 48.17698 | 17.22253 | 1057 ft | 148 kts | 43° |
| 2026-05-01 08:21 | 48.18437 | 17.23330 | 1821 ft | 153 kts | 42° |
| 2026-05-01 08:22 | 48.19236 | 17.24490 | 2365 ft | 167 kts | 43° |
| 2026-05-01 08:22 | 48.20126 | 17.25764 | 2851 ft | 185 kts | 42° |
| 2026-05-01 08:22 | 48.21093 | 17.27151 | 3496 ft | 197 kts | 43° |
| 2026-05-01 08:22 | 48.22106 | 17.28557 | 3932 ft | 202 kts | 36° |
| 2026-05-01 08:23 | 48.23436 | 17.29088 | 4175 ft | 205 kts | 353° |
| 2026-05-01 08:23 | 48.24668 | 17.27993 | 4434 ft | 217 kts | 310° |
| 2026-05-01 08:23 | 48.25106 | 17.25832 | 4685 ft | 228 kts | 270° |
| 2026-05-01 08:23 | 48.24651 | 17.23528 | 4911 ft | 233 kts | 250° |
| 2026-05-01 08:24 | 48.24010 | 17.21275 | 4977 ft | 234 kts | 248° |
| 2026-05-01 08:24 | 48.23323 | 17.19043 | 5109 ft | 238 kts | 246° |
| 2026-05-01 08:24 | 48.22635 | 17.16811 | 5849 ft | 237 kts | 247° |
| 2026-05-01 08:24 | 48.21949 | 17.14558 | 6494 ft | 242 kts | 248° |
| 2026-05-01 08:25 | 48.21468 | 17.12144 | 7078 ft | 242 kts | 266° |
| 2026-05-01 08:25 | 48.21531 | 17.09643 | 7588 ft | 242 kts | 286° |
| 2026-05-01 08:25 | 48.22139 | 17.07211 | 7739 ft | 259 kts | 302° |
| 2026-05-01 08:25 | 48.22988 | 17.04709 | 8028 ft | 279 kts | 302° |
| 2026-05-01 08:26 | 48.23870 | 17.02078 | 8763 ft | 284 kts | 302° |
| 2026-05-01 08:26 | 48.24770 | 16.99415 | 9524 ft | 289 kts | 302° |
| 2026-05-01 08:26 | 48.25695 | 16.96698 | 10262 ft | 295 kts | 303° |
| 2026-05-01 08:26 | 48.26577 | 16.93867 | 10638 ft | 316 kts | 294° |
| 2026-05-01 08:27 | 48.27048 | 16.90494 | 10826 ft | 345 kts | 278° |
| 2026-05-01 08:27 | 48.27033 | 16.86815 | 11301 ft | 356 kts | 272° |
| 2026-05-01 08:27 | 48.27016 | 16.83073 | 11951 ft | 359 kts | 274° |
| 2026-05-01 08:27 | 48.27033 | 16.79340 | 12584 ft | 364 kts | 275° |
| 2026-05-01 08:28 | 48.27072 | 16.75516 | 13236 ft | 368 kts | 275° |
| 2026-05-01 08:28 | 48.27116 | 16.71658 | 13887 ft | 372 kts | 275° |
| 2026-05-01 08:28 | 48.27155 | 16.67728 | 14496 ft | 376 kts | 275° |
| 2026-05-01 08:28 | 48.27184 | 16.63833 | 15066 ft | 380 kts | 275° |
| 2026-05-01 08:29 | 48.27203 | 16.59835 | 15643 ft | 384 kts | 274° |
| 2026-05-01 08:29 | 48.27215 | 16.55818 | 16209 ft | 388 kts | 274° |
| 2026-05-01 08:29 | 48.27228 | 16.51787 | 16780 ft | 391 kts | 274° |
| 2026-05-01 08:29 | 48.27240 | 16.47665 | 17354 ft | 395 kts | 274° |
| 2026-05-01 08:30 | 48.27250 | 16.43524 | 17917 ft | 399 kts | 274° |
| 2026-05-01 08:30 | 48.27259 | 16.39330 | 18467 ft | 402 kts | 274° |
| 2026-05-01 08:30 | 48.27265 | 16.35163 | 18968 ft | 406 kts | 274° |
| 2026-05-01 08:30 | 48.27269 | 16.30896 | 19454 ft | 409 kts | 274° |
| 2026-05-01 08:31 | 48.27270 | 16.26594 | 19939 ft | 413 kts | 274° |
| 2026-05-01 08:31 | 48.27270 | 16.22266 | 20416 ft | 416 kts | 274° |
| 2026-05-01 08:31 | 48.27272 | 16.17898 | 20889 ft | 419 kts | 274° |
| 2026-05-01 08:31 | 48.27275 | 16.13544 | 21344 ft | 422 kts | 275° |
| 2026-05-01 08:32 | 48.27278 | 16.09112 | 21797 ft | 426 kts | 275° |
| 2026-05-01 08:32 | 48.27278 | 16.04641 | 22256 ft | 429 kts | 275° |
| 2026-05-01 08:32 | 48.27273 | 16.00198 | 22713 ft | 432 kts | 275° |
| 2026-05-01 08:32 | 48.27264 | 15.95673 | 23156 ft | 435 kts | 275° |
| 2026-05-01 08:33 | 48.27254 | 15.91108 | 23596 ft | 438 kts | 275° |
| 2026-05-01 08:33 | 48.27244 | 15.86509 | 24030 ft | 441 kts | 275° |
| 2026-05-01 08:33 | 48.27232 | 15.81942 | 24392 ft | 444 kts | 275° |
| 2026-05-01 08:33 | 48.27218 | 15.77289 | 24767 ft | 446 kts | 275° |
| 2026-05-01 08:34 | 48.27201 | 15.72596 | 25156 ft | 448 kts | 275° |
| 2026-05-01 08:34 | 48.27184 | 15.67898 | 25534 ft | 451 kts | 275° |
| 2026-05-01 08:34 | 48.27165 | 15.63185 | 25912 ft | 453 kts | 275° |
| 2026-05-01 08:34 | 48.27144 | 15.58485 | 26288 ft | 455 kts | 274° |
| 2026-05-01 08:35 | 48.27118 | 15.53701 | 26663 ft | 458 kts | 274° |
| 2026-05-01 08:35 | 48.27091 | 15.48965 | 27030 ft | 460 kts | 274° |
| 2026-05-01 08:35 | 48.27061 | 15.44088 | 27403 ft | 462 kts | 274° |
| 2026-05-01 08:35 | 48.27030 | 15.39297 | 27764 ft | 464 kts | 274° |
| 2026-05-01 08:36 | 48.26998 | 15.34435 | 28122 ft | 467 kts | 274° |
| 2026-05-01 08:36 | 48.26965 | 15.29537 | 28481 ft | 469 kts | 274° |
| 2026-05-01 08:36 | 48.26930 | 15.24632 | 28843 ft | 471 kts | 274° |
| 2026-05-01 08:36 | 48.26889 | 15.19744 | 29187 ft | 473 kts | 274° |
| 2026-05-01 08:37 | 48.26846 | 15.14803 | 29540 ft | 475 kts | 274° |
| 2026-05-01 08:37 | 48.26801 | 15.09820 | 29895 ft | 478 kts | 274° |
| 2026-05-01 08:37 | 48.26754 | 15.04817 | 30234 ft | 480 kts | 274° |
| 2026-05-01 08:37 | 48.26705 | 14.99793 | 30555 ft | 482 kts | 274° |
| 2026-05-01 08:38 | 48.26655 | 14.94813 | 30829 ft | 483 kts | 274° |
| 2026-05-01 08:38 | 48.26600 | 14.89751 | 31095 ft | 485 kts | 274° |
| 2026-05-01 08:38 | 48.26543 | 14.84679 | 31352 ft | 487 kts | 274° |
| 2026-05-01 08:38 | 48.26484 | 14.79586 | 31588 ft | 488 kts | 274° |
| 2026-05-01 08:39 | 48.26424 | 14.74478 | 31839 ft | 489 kts | 274° |
| 2026-05-01 08:39 | 48.26360 | 14.69435 | 32126 ft | 489 kts | 274° |
| 2026-05-01 08:39 | 48.26293 | 14.64323 | 32464 ft | 488 kts | 274° |
| 2026-05-01 08:39 | 48.26224 | 14.59223 | 32784 ft | 487 kts | 274° |
| 2026-05-01 08:40 | 48.26084 | 14.49122 | 33443 ft | 484 kts | 274° |
| 2026-05-01 08:40 | 48.26012 | 14.44075 | 33769 ft | 483 kts | 274° |
| 2026-05-01 08:40 | 48.25937 | 14.39020 | 34093 ft | 482 kts | 274° |
| 2026-05-01 08:41 | 48.25858 | 14.33996 | 34415 ft | 481 kts | 274° |
| 2026-05-01 08:41 | 48.25774 | 14.29022 | 34689 ft | 480 kts | 274° |
| 2026-05-01 08:41 | 48.25687 | 14.24005 | 34952 ft | 480 kts | 274° |
| 2026-05-01 08:41 | 48.25602 | 14.19000 | 35211 ft | 479 kts | 274° |
| 2026-05-01 08:42 | 48.25519 | 14.13997 | 35471 ft | 478 kts | 274° |
| 2026-05-01 08:42 | 48.25437 | 14.09072 | 35728 ft | 478 kts | 274° |
| 2026-05-01 08:42 | 48.25351 | 14.04069 | 35988 ft | 477 kts | 274° |
| 2026-05-01 08:42 | 48.25261 | 13.99089 | 36248 ft | 477 kts | 274° |
| 2026-05-01 08:43 | 48.25166 | 13.94169 | 36406 ft | 477 kts | 274° |
| 2026-05-01 08:43 | 48.25069 | 13.89202 | 36439 ft | 473 kts | 274° |
| 2026-05-01 08:43 | 48.24874 | 13.79365 | 36438 ft | 470 kts | 274° |
| 2026-05-01 08:44 | 48.24667 | 13.69608 | 36437 ft | 469 kts | 273° |
| 2026-05-01 08:44 | 48.24454 | 13.59830 | 36436 ft | 469 kts | 273° |
| 2026-05-01 08:45 | 48.24235 | 13.50043 | 36434 ft | 468 kts | 273° |
| 2026-05-01 08:45 | 48.24011 | 13.40317 | 36437 ft | 469 kts | 273° |
| 2026-05-01 08:46 | 48.23777 | 13.30508 | 36441 ft | 469 kts | 273° |
| 2026-05-01 08:46 | 48.23531 | 13.20774 | 36441 ft | 469 kts | 273° |
| 2026-05-01 08:47 | 48.23270 | 13.10975 | 36439 ft | 469 kts | 272° |
| 2026-05-01 08:47 | 48.22867 | 13.01255 | 36442 ft | 473 kts | 265° |
| 2026-05-01 08:48 | 48.21329 | 12.91604 | 36436 ft | 476 kts | 259° |
| 2026-05-01 08:48 | 48.19694 | 12.82023 | 36438 ft | 476 kts | 259° |
| 2026-05-01 08:49 | 48.18049 | 12.72401 | 36434 ft | 476 kts | 259° |
| 2026-05-01 08:49 | 48.16401 | 12.62799 | 36425 ft | 476 kts | 259° |
| 2026-05-01 08:50 | 48.14752 | 12.53233 | 36422 ft | 475 kts | 259° |
| 2026-05-01 08:50 | 48.13092 | 12.43636 | 36416 ft | 475 kts | 259° |
| 2026-05-01 08:51 | 48.11433 | 12.34122 | 36415 ft | 475 kts | 259° |
| 2026-05-01 08:51 | 48.09745 | 12.24549 | 36422 ft | 475 kts | 259° |
| 2026-05-01 08:52 | 48.08066 | 12.15042 | 36415 ft | 474 kts | 259° |
| 2026-05-01 08:52 | 48.06371 | 12.05487 | 36416 ft | 474 kts | 258° |
| 2026-05-01 08:53 | 48.04681 | 11.96023 | 36413 ft | 473 kts | 258° |
| 2026-05-01 08:53 | 48.02976 | 11.86517 | 36415 ft | 473 kts | 258° |
| 2026-05-01 08:54 | 48.01274 | 11.77079 | 36410 ft | 472 kts | 258° |
| 2026-05-01 08:54 | 47.99551 | 11.67585 | 36407 ft | 472 kts | 258° |
| 2026-05-01 08:55 | 47.97834 | 11.58163 | 36404 ft | 471 kts | 258° |
| 2026-05-01 08:55 | 47.96103 | 11.48706 | 36403 ft | 471 kts | 258° |
| 2026-05-01 08:56 | 47.94380 | 11.39332 | 36400 ft | 471 kts | 258° |
| 2026-05-01 08:56 | 47.92635 | 11.29893 | 36400 ft | 470 kts | 258° |
| 2026-05-01 08:57 | 47.90890 | 11.20529 | 36396 ft | 470 kts | 257° |
| 2026-05-01 08:57 | 47.89133 | 11.11135 | 36380 ft | 469 kts | 257° |
| 2026-05-01 08:58 | 47.87387 | 11.01815 | 36379 ft | 469 kts | 257° |
| 2026-05-01 08:58 | 47.85805 | 10.93431 | 36379 ft | 468 kts | 257° |
| 2026-05-01 08:59 | 47.84041 | 10.84138 | 36371 ft | 468 kts | 257° |
| 2026-05-01 08:59 | 47.82270 | 10.74823 | 36381 ft | 467 kts | 257° |
| 2026-05-01 09:00 | 47.80487 | 10.65508 | 36367 ft | 467 kts | 257° |
| 2026-05-01 09:00 | 47.78753 | 10.56522 | 36373 ft | 466 kts | 257° |
| 2026-05-01 09:01 | 47.76956 | 10.47239 | 36359 ft | 466 kts | 257° |
| 2026-05-01 09:01 | 47.75181 | 10.38048 | 36361 ft | 465 kts | 259° |
| 2026-05-01 09:02 | 47.74442 | 10.28595 | 36356 ft | 458 kts | 272° |
| 2026-05-01 09:02 | 47.74245 | 10.19115 | 36366 ft | 458 kts | 271° |
| 2026-05-01 09:03 | 47.74017 | 10.09702 | 36364 ft | 458 kts | 271° |
| 2026-05-01 09:03 | 47.73771 | 10.00237 | 36364 ft | 457 kts | 271° |
| 2026-05-01 09:04 | 47.73534 | 9.90824 | 36370 ft | 457 kts | 271° |
| 2026-05-01 09:04 | 47.73298 | 9.81435 | 36374 ft | 457 kts | 271° |
| 2026-05-01 09:05 | 47.73041 | 9.71979 | 36377 ft | 457 kts | 269° |
| 2026-05-01 09:05 | 47.71652 | 9.62792 | 36378 ft | 462 kts | 250° |
| 2026-05-01 09:06 | 47.69051 | 9.54090 | 36378 ft | 463 kts | 248° |
| 2026-05-01 09:06 | 47.66423 | 9.45343 | 36377 ft | 462 kts | 248° |
| 2026-05-01 09:07 | 47.63814 | 9.36665 | 36689 ft | 462 kts | 248° |
| 2026-05-01 09:07 | 47.62499 | 9.32318 | 36973 ft | 461 kts | 248° |
| 2026-05-01 09:07 | 47.61184 | 9.27983 | 37243 ft | 460 kts | 248° |
| 2026-05-01 09:08 | 47.59869 | 9.23657 | 37355 ft | 459 kts | 248° |
| 2026-05-01 09:08 | 47.58570 | 9.19395 | 37351 ft | 459 kts | 247° |
| 2026-05-01 09:08 | 47.56379 | 9.12227 | 37350 ft | 458 kts | 247° |
| 2026-05-01 09:09 | 47.53319 | 9.02240 | 37352 ft | 457 kts | 247° |
| 2026-05-01 09:09 | 47.50692 | 8.93700 | 37353 ft | 456 kts | 247° |
| 2026-05-01 09:10 | 47.48498 | 8.86586 | 37354 ft | 456 kts | 247° |
| 2026-05-01 09:10 | 47.45854 | 8.78019 | 37359 ft | 456 kts | 247° |
| 2026-05-01 09:11 | 47.43225 | 8.69520 | 37371 ft | 457 kts | 247° |
| 2026-05-01 09:11 | 47.40565 | 8.60985 | 37376 ft | 457 kts | 247° |
| 2026-05-01 09:12 | 47.37914 | 8.52521 | 37377 ft | 456 kts | 246° |
| 2026-05-01 09:12 | 47.35242 | 8.43995 | 37379 ft | 456 kts | 246° |
| 2026-05-01 09:13 | 47.32589 | 8.35555 | 37376 ft | 456 kts | 246° |
| 2026-05-01 09:13 | 47.29920 | 8.27071 | 37372 ft | 455 kts | 246° |
| 2026-05-01 09:14 | 47.27259 | 8.18668 | 37370 ft | 455 kts | 246° |
| 2026-05-01 09:14 | 47.24579 | 8.10237 | 37371 ft | 454 kts | 246° |
| 2026-05-01 09:15 | 47.21893 | 8.01815 | 37372 ft | 454 kts | 246° |
| 2026-05-01 09:15 | 47.19223 | 7.93470 | 37361 ft | 453 kts | 246° |
| 2026-05-01 09:16 | 47.16542 | 7.85082 | 37352 ft | 452 kts | 245° |
| 2026-05-01 09:17 | 47.12517 | 7.72592 | 37352 ft | 452 kts | 245° |
| 2026-05-01 09:17 | 47.08456 | 7.60084 | 37353 ft | 451 kts | 245° |
| 2026-05-01 09:18 | 47.04420 | 7.47682 | 37357 ft | 450 kts | 245° |
| 2026-05-01 09:19 | 47.01297 | 7.39824 | 37363 ft | 449 kts | 231° |
| 2026-05-01 09:19 | 46.99338 | 7.36249 | 37360 ft | 448 kts | 231° |
| 2026-05-01 09:20 | 46.93490 | 7.25616 | 37349 ft | 447 kts | 231° |
| 2026-05-01 09:21 | 46.85690 | 7.11409 | 37367 ft | 447 kts | 231° |
| 2026-05-01 09:21 | 46.79862 | 7.00840 | 37375 ft | 447 kts | 231° |
| 2026-05-01 09:22 | 46.72055 | 6.86766 | 37377 ft | 446 kts | 231° |
| 2026-05-01 09:23 | 46.66215 | 6.76231 | 37361 ft | 446 kts | 233° |
| 2026-05-01 09:24 | 46.61414 | 6.64613 | 37364 ft | 446 kts | 239° |
| 2026-05-01 09:25 | 46.55172 | 6.49084 | 37367 ft | 446 kts | 239° |
| 2026-05-01 09:26 | 46.50473 | 6.37455 | 37358 ft | 445 kts | 239° |
| 2026-05-01 09:26 | 46.45766 | 6.25872 | 37355 ft | 444 kts | 239° |
| 2026-05-01 09:27 | 46.41052 | 6.14298 | 37357 ft | 443 kts | 239° |
| 2026-05-01 09:28 | 46.37931 | 6.06657 | 37343 ft | 442 kts | 239° |
| 2026-05-01 09:28 | 46.34792 | 5.99011 | 37357 ft | 441 kts | 238° |
| 2026-05-01 09:29 | 46.30092 | 5.87636 | 37349 ft | 439 kts | 238° |
| 2026-05-01 09:30 | 46.25025 | 5.76672 | 37345 ft | 438 kts | 234° |
| 2026-05-01 09:30 | 46.19774 | 5.65932 | 37320 ft | 437 kts | 234° |
| 2026-05-01 09:31 | 46.16323 | 5.58706 | 37326 ft | 436 kts | 235° |
| 2026-05-01 09:32 | 46.11194 | 5.47927 | 37320 ft | 435 kts | 235° |
| 2026-05-01 09:32 | 46.06019 | 5.37166 | 37321 ft | 434 kts | 234° |
| 2026-05-01 09:33 | 46.02598 | 5.30062 | 37307 ft | 434 kts | 235° |
| 2026-05-01 09:34 | 45.97447 | 5.19400 | 37315 ft | 433 kts | 235° |
| 2026-05-01 09:34 | 45.92276 | 5.08751 | 37310 ft | 432 kts | 235° |
| 2026-05-01 09:35 | 45.87116 | 4.98151 | 37327 ft | 432 kts | 235° |
| 2026-05-01 09:36 | 45.83664 | 4.91090 | 37331 ft | 431 kts | 235° |
| 2026-05-01 09:36 | 45.80242 | 4.84098 | 37333 ft | 430 kts | 235° |
| 2026-05-01 09:37 | 45.76798 | 4.77072 | 37319 ft | 429 kts | 236° |
| 2026-05-01 09:37 | 45.71652 | 4.66629 | 37307 ft | 428 kts | 235° |
| 2026-05-01 09:38 | 45.66511 | 4.56238 | 37326 ft | 427 kts | 236° |
| 2026-05-01 09:39 | 45.61378 | 4.45871 | 37325 ft | 426 kts | 236° |
| 2026-05-01 09:39 | 45.57945 | 4.38964 | 37328 ft | 425 kts | 235° |
| 2026-05-01 09:40 | 45.52818 | 4.28701 | 37333 ft | 424 kts | 235° |
| 2026-05-01 09:41 | 45.49385 | 4.21853 | 37333 ft | 423 kts | 235° |
| 2026-05-01 09:41 | 45.44266 | 4.11660 | 37318 ft | 422 kts | 235° |
| 2026-05-01 09:42 | 45.40841 | 4.04846 | 37315 ft | 422 kts | 235° |
| 2026-05-01 09:43 | 45.33996 | 3.91309 | 37306 ft | 421 kts | 235° |
| 2026-05-01 09:43 | 45.30587 | 3.84590 | 37308 ft | 421 kts | 235° |
| 2026-05-01 09:44 | 45.26123 | 3.73898 | 37314 ft | 420 kts | 252° |
| 2026-05-01 09:45 | 45.25167 | 3.65776 | 37316 ft | 421 kts | 265° |
| 2026-05-01 09:45 | 45.24398 | 3.53325 | 37307 ft | 422 kts | 264° |
| 2026-05-01 09:46 | 45.23865 | 3.45082 | 37300 ft | 422 kts | 264° |
| 2026-05-01 09:46 | 45.23335 | 3.36802 | 37294 ft | 422 kts | 264° |
| 2026-05-01 09:47 | 45.22793 | 3.28483 | 37294 ft | 423 kts | 264° |
| 2026-05-01 09:47 | 45.22243 | 3.20171 | 37297 ft | 423 kts | 264° |
| 2026-05-01 09:48 | 45.21693 | 3.11901 | 37288 ft | 423 kts | 264° |
| 2026-05-01 09:48 | 45.21141 | 3.03574 | 37293 ft | 423 kts | 264° |
| 2026-05-01 09:49 | 45.20585 | 2.95317 | 37280 ft | 423 kts | 264° |
| 2026-05-01 09:49 | 45.20007 | 2.86993 | 37288 ft | 423 kts | 264° |
| 2026-05-01 09:50 | 45.19430 | 2.78726 | 37295 ft | 423 kts | 264° |
| 2026-05-01 09:50 | 45.18842 | 2.70397 | 37277 ft | 424 kts | 264° |
| 2026-05-01 09:51 | 45.18259 | 2.62110 | 37290 ft | 425 kts | 264° |
| 2026-05-01 09:51 | 45.17668 | 2.53748 | 37289 ft | 425 kts | 264° |
| 2026-05-01 09:52 | 45.17073 | 2.45445 | 37287 ft | 426 kts | 264° |
| 2026-05-01 09:52 | 45.16460 | 2.37064 | 37139 ft | 428 kts | 263° |
| 2026-05-01 09:53 | 45.16145 | 2.32870 | 36826 ft | 428 kts | 263° |
| 2026-05-01 09:53 | 45.15823 | 2.28673 | 36548 ft | 427 kts | 263° |
| 2026-05-01 09:53 | 45.15499 | 2.24543 | 36313 ft | 426 kts | 263° |
| 2026-05-01 09:53 | 45.15175 | 2.20369 | 36068 ft | 425 kts | 264° |
| 2026-05-01 09:54 | 45.14880 | 2.16207 | 35820 ft | 424 kts | 264° |
| 2026-05-01 09:54 | 45.14598 | 2.12061 | 35604 ft | 422 kts | 264° |
| 2026-05-01 09:54 | 45.14311 | 2.07980 | 35355 ft | 420 kts | 264° |
| 2026-05-01 09:54 | 45.14009 | 2.03830 | 34491 ft | 427 kts | 264° |
| 2026-05-01 09:55 | 45.13688 | 1.99628 | 33554 ft | 431 kts | 263° |
| 2026-05-01 09:55 | 45.13346 | 1.95403 | 32907 ft | 428 kts | 263° |
| 2026-05-01 09:55 | 45.13000 | 1.91240 | 32473 ft | 421 kts | 263° |
| 2026-05-01 09:55 | 45.12664 | 1.87203 | 32134 ft | 412 kts | 263° |
| 2026-05-01 09:56 | 45.12348 | 1.83214 | 31872 ft | 402 kts | 263° |
| 2026-05-01 09:56 | 45.12052 | 1.79322 | 31614 ft | 392 kts | 263° |
| 2026-05-01 09:56 | 45.11764 | 1.75521 | 31352 ft | 383 kts | 263° |
| 2026-05-01 09:56 | 45.11484 | 1.71802 | 31022 ft | 376 kts | 263° |
| 2026-05-01 09:57 | 45.11205 | 1.68139 | 30625 ft | 372 kts | 263° |
| 2026-05-01 09:57 | 45.10924 | 1.64567 | 30196 ft | 368 kts | 263° |
| 2026-05-01 09:57 | 45.10633 | 1.60986 | 29737 ft | 364 kts | 263° |
| 2026-05-01 09:57 | 45.10335 | 1.57447 | 29306 ft | 359 kts | 263° |
| 2026-05-01 09:58 | 45.10039 | 1.53968 | 28908 ft | 354 kts | 263° |
| 2026-05-01 09:58 | 45.09756 | 1.50518 | 28535 ft | 349 kts | 263° |
| 2026-05-01 09:58 | 45.09493 | 1.47173 | 28196 ft | 343 kts | 263° |
| 2026-05-01 09:58 | 45.09243 | 1.43836 | 27871 ft | 337 kts | 263° |
| 2026-05-01 09:59 | 45.09005 | 1.40559 | 27558 ft | 331 kts | 263° |
| 2026-05-01 09:59 | 45.08754 | 1.37328 | 27257 ft | 330 kts | 263° |
| 2026-05-01 09:59 | 45.08482 | 1.34130 | 26965 ft | 333 kts | 262° |
| 2026-05-01 09:59 | 45.08185 | 1.30853 | 26560 ft | 339 kts | 262° |
| 2026-05-01 10:00 | 45.07880 | 1.27503 | 26127 ft | 345 kts | 262° |
| 2026-05-01 10:00 | 45.07582 | 1.24112 | 25764 ft | 348 kts | 263° |
| 2026-05-01 10:00 | 45.07295 | 1.20736 | 25436 ft | 350 kts | 263° |
| 2026-05-01 10:00 | 45.07015 | 1.17305 | 25124 ft | 352 kts | 263° |
| 2026-05-01 10:01 | 45.06738 | 1.13844 | 24705 ft | 354 kts | 263° |
| 2026-05-01 10:01 | 45.06458 | 1.10356 | 24224 ft | 357 kts | 263° |
| 2026-05-01 10:01 | 45.06176 | 1.06910 | 23697 ft | 357 kts | 263° |
| 2026-05-01 10:01 | 45.05882 | 1.03434 | 23307 ft | 353 kts | 263° |
| 2026-05-01 10:02 | 45.05584 | 0.99998 | 22939 ft | 348 kts | 263° |
| 2026-05-01 10:02 | 45.05285 | 0.96614 | 22562 ft | 343 kts | 263° |
| 2026-05-01 10:02 | 45.04992 | 0.93327 | 22192 ft | 339 kts | 263° |
| 2026-05-01 10:02 | 45.04703 | 0.90022 | 21769 ft | 338 kts | 263° |
| 2026-05-01 10:03 | 45.04424 | 0.86737 | 21343 ft | 336 kts | 263° |
| 2026-05-01 10:03 | 45.04149 | 0.83453 | 20932 ft | 334 kts | 263° |
| 2026-05-01 10:03 | 45.03869 | 0.80244 | 20560 ft | 331 kts | 262° |
| 2026-05-01 10:03 | 45.03576 | 0.77018 | 20203 ft | 328 kts | 262° |
| 2026-05-01 10:04 | 45.03283 | 0.73823 | 19859 ft | 325 kts | 262° |
| 2026-05-01 10:04 | 45.02998 | 0.70657 | 19472 ft | 324 kts | 262° |
| 2026-05-01 10:04 | 45.02722 | 0.67527 | 19094 ft | 327 kts | 262° |
| 2026-05-01 10:04 | 45.02439 | 0.64310 | 18725 ft | 329 kts | 262° |
| 2026-05-01 10:05 | 45.02159 | 0.61094 | 18304 ft | 329 kts | 262° |
| 2026-05-01 10:05 | 45.01878 | 0.57882 | 17847 ft | 328 kts | 262° |
| 2026-05-01 10:05 | 45.01595 | 0.54690 | 17410 ft | 327 kts | 262° |
| 2026-05-01 10:05 | 45.01313 | 0.51543 | 16994 ft | 325 kts | 262° |
| 2026-05-01 10:06 | 45.01027 | 0.48384 | 16595 ft | 323 kts | 262° |
| 2026-05-01 10:06 | 45.00739 | 0.45239 | 16200 ft | 321 kts | 262° |
| 2026-05-01 10:06 | 45.00453 | 0.42120 | 15824 ft | 318 kts | 262° |
| 2026-05-01 10:06 | 45.00168 | 0.39033 | 15456 ft | 315 kts | 261° |
| 2026-05-01 10:07 | 44.99888 | 0.36012 | 15119 ft | 313 kts | 262° |
| 2026-05-01 10:07 | 44.99618 | 0.32977 | 14767 ft | 310 kts | 262° |
| 2026-05-01 10:07 | 44.99350 | 0.29957 | 14351 ft | 309 kts | 261° |
| 2026-05-01 10:07 | 44.99076 | 0.26943 | 13885 ft | 308 kts | 261° |
| 2026-05-01 10:08 | 44.98508 | 0.21056 | 13088 ft | 299 kts | 261° |
| 2026-05-01 10:08 | 44.98231 | 0.18157 | 12718 ft | 295 kts | 261° |
| 2026-05-01 10:08 | 44.97911 | 0.15311 | 12293 ft | 293 kts | 254° |
| 2026-05-01 10:09 | 44.97234 | 0.12589 | 12015 ft | 293 kts | 248° |
| 2026-05-01 10:09 | 44.96517 | 0.09921 | 11735 ft | 294 kts | 249° |
| 2026-05-01 10:09 | 44.95809 | 0.07206 | 11419 ft | 293 kts | 249° |
| 2026-05-01 10:09 | 44.95124 | 0.04531 | 11164 ft | 286 kts | 249° |
| 2026-05-01 10:10 | 44.94458 | 0.01916 | 10819 ft | 281 kts | 249° |
| 2026-05-01 10:10 | 44.93790 | -0.00677 | 10415 ft | 280 kts | 248° |
| 2026-05-01 10:10 | 44.92449 | -0.05802 | 9607 ft | 277 kts | 248° |
| 2026-05-01 10:11 | 44.91778 | -0.08335 | 9214 ft | 274 kts | 248° |
| 2026-05-01 10:11 | 44.91111 | -0.10844 | 8838 ft | 272 kts | 248° |
| 2026-05-01 10:11 | 44.90452 | -0.13332 | 8472 ft | 269 kts | 249° |
| 2026-05-01 10:11 | 44.89802 | -0.15807 | 8103 ft | 268 kts | 249° |
| 2026-05-01 10:12 | 44.89221 | -0.18261 | 7692 ft | 268 kts | 256° |
| 2026-05-01 10:12 | 44.89054 | -0.19987 | 7504 ft | 266 kts | 265° |
| 2026-05-01 10:12 | 44.89422 | -0.26058 | 6619 ft | 265 kts | 271° |
| 2026-05-01 10:13 | 44.89466 | -0.28562 | 6514 ft | 252 kts | 269° |
| 2026-05-01 10:13 | 44.89477 | -0.30988 | 6399 ft | 241 kts | 268° |
| 2026-05-01 10:13 | 44.89493 | -0.33323 | 6225 ft | 233 kts | 270° |
| 2026-05-01 10:14 | 44.90633 | -0.37425 | 5705 ft | 231 kts | 310° |
| 2026-05-01 10:14 | 44.91822 | -0.39020 | 5429 ft | 240 kts | 315° |
| 2026-05-01 10:14 | 44.93043 | -0.40682 | 5155 ft | 246 kts | 314° |
| 2026-05-01 10:14 | 44.94268 | -0.42378 | 4816 ft | 251 kts | 314° |
| 2026-05-01 10:15 | 44.95505 | -0.44119 | 4480 ft | 250 kts | 314° |
| 2026-05-01 10:15 | 44.96724 | -0.45854 | 4146 ft | 246 kts | 313° |
| 2026-05-01 10:15 | 44.97563 | -0.47848 | 3784 ft | 237 kts | 280° |
| 2026-05-01 10:15 | 44.97441 | -0.50089 | 3494 ft | 224 kts | 245° |
| 2026-05-01 10:16 | 44.96604 | -0.51834 | 3264 ft | 212 kts | 222° |
| 2026-05-01 10:16 | 44.95573 | -0.53289 | 3195 ft | 205 kts | 223° |
| 2026-05-01 10:16 | 44.93595 | -0.56151 | 2924 ft | 206 kts | 222° |
| 2026-05-01 10:17 | 44.92592 | -0.57593 | 2684 ft | 204 kts | 223° |
| 2026-05-01 10:17 | 44.90657 | -0.60382 | 2196 ft | 190 kts | 222° |
| 2026-05-01 10:17 | 44.89737 | -0.61693 | 1879 ft | 185 kts | 222° |
| 2026-05-01 10:18 | 44.88066 | -0.64094 | 1447 ft | 153 kts | 220° |
| 2026-05-01 10:18 | 44.87354 | -0.65110 | 1205 ft | 145 kts | 221° |
| 2026-05-01 10:18 | 44.86662 | -0.66105 | 1021 ft | 139 kts | 220° |
| 2026-05-01 10:19 | 44.85969 | -0.67089 | 799 ft | 142 kts | 222° |
| 2026-05-01 10:19 | 44.85268 | -0.68091 | 650 ft | 144 kts | 221° |
| 2026-05-01 10:19 | 44.84566 | -0.69107 | 390 ft | 146 kts | 220° |
| 2026-05-01 10:20 | 44.83152 | -0.71128 | 165 ft | 128 kts | 221° |
| 2026-05-01 10:20 | 44.82646 | -0.71846 | 168 ft | 76 kts | 226° |
| 2026-05-01 10:20 | 44.82338 | -0.72282 | 167 ft | 54 kts | 223° |
| 2026-05-01 10:20 | 44.82188 | -0.72488 | 169 ft | 13 kts | 211° |
| 2026-05-01 10:21 | 44.82112 | -0.72444 | 168 ft | 14 kts | 135° |
| 2026-05-01 10:21 | 44.82088 | -0.72224 | 167 ft | 15 kts | 71° |
| 2026-05-01 10:21 | 44.82155 | -0.72100 | 167 ft | 17 kts | 45° |
| 2026-05-01 10:22 | 44.82370 | -0.71790 | 166 ft | 21 kts | 45° |
| 2026-05-01 10:22 | 44.82595 | -0.71471 | 166 ft | 25 kts | 46° |
| 2026-05-01 10:23 | 44.82677 | -0.71350 | 166 ft | 26 kts | 47° |
| 2026-05-01 10:23 | 44.82921 | -0.71001 | 165 ft | 19 kts | 46° |
| 2026-05-01 10:23 | 44.82920 | -0.70838 | 166 ft | 18 kts | 107° |
| 2026-05-01 10:24 | 44.82866 | -0.70504 | 167 ft | 13 kts | 72° |
| 2026-05-01 10:24 | 44.82915 | -0.70352 | 167 ft | 9 kts | 96° |
| 2026-05-01 10:25 | 44.82965 | -0.70261 | 166 ft | 0 kts | 63° |